sensor_id;sensor_type;location;lat;lon;timestamp;pressure;altitude;pressure_sealevel;temperature;humidity
706;BME280;21234;48.690;9.016;2024-03-08T00:02:35;95957.03;;;1.38;100.00
706;BME280;21234;48.690;9.016;2024-03-08T00:05:02;95946.31;;;1.38;100.00
706;BME280;21234;48.690;9.016;2024-03-08T00:07:28;95949.19;;;1.37;100.00
706;BME280;21234;48.690;9.016;2024-03-08T00:09:56;95945.91;;;1.34;100.00
706;BME280;21234;48.690;9.016;2024-03-08T00:12:23;95944.03;;;1.35;100.00
706;BME280;21234;48.690;9.016;2024-03-08T00:14:51;95939.09;;;1.32;100.00
706;BME280;21234;48.690;9.016;2024-03-08T00:17:18;95942.19;;;1.29;100.00
706;BME280;21234;48.690;9.016;2024-03-08T00:19:44;95935.59;;;1.25;100.00
706;BME280;21234;48.690;9.016;2024-03-08T00:22:11;95947.53;;;1.22;100.00
706;BME280;21234;48.690;9.016;2024-03-08T00:24:38;95939.06;;;1.19;100.00
706;BME280;21234;48.690;9.016;2024-03-08T00:27:06;95938.22;;;1.18;100.00
706;BME280;21234;48.690;9.016;2024-03-08T00:29:34;95936.38;;;1.19;100.00
706;BME280;21234;48.690;9.016;2024-03-08T00:32:01;95931.81;;;1.13;100.00
706;BME280;21234;48.690;9.016;2024-03-08T00:34:28;95928.72;;;1.09;100.00
706;BME280;21234;48.690;9.016;2024-03-08T00:36:55;95922.53;;;1.09;100.00
706;BME280;21234;48.690;9.016;2024-03-08T00:39:21;95921.06;;;1.06;100.00
706;BME280;21234;48.690;9.016;2024-03-08T00:41:48;95917.97;;;1.02;100.00
706;BME280;21234;48.690;9.016;2024-03-08T00:44:16;95921.03;;;0.99;100.00
706;BME280;21234;48.690;9.016;2024-03-08T00:46:43;95919.00;;;0.95;100.00
706;BME280;21234;48.690;9.016;2024-03-08T00:49:09;95914.66;;;0.94;100.00
706;BME280;21234;48.690;9.016;2024-03-08T00:51:38;95911.78;;;0.95;100.00
706;BME280;21234;48.690;9.016;2024-03-08T00:54:05;95915.09;;;0.97;100.00
706;BME280;21234;48.690;9.016;2024-03-08T00:56:31;95914.22;;;0.90;100.00
706;BME280;21234;48.690;9.016;2024-03-08T00:58:59;95916.72;;;0.92;100.00
706;BME280;21234;48.690;9.016;2024-03-08T01:01:27;95910.72;;;0.90;100.00
706;BME280;21234;48.690;9.016;2024-03-08T01:03:54;95903.72;;;0.89;100.00
706;BME280;21234;48.690;9.016;2024-03-08T01:06:22;95899.78;;;0.85;100.00
706;BME280;21234;48.690;9.016;2024-03-08T01:08:48;95901.63;;;0.84;100.00
706;BME280;21234;48.690;9.016;2024-03-08T01:11:17;95889.28;;;0.83;100.00
706;BME280;21234;48.690;9.016;2024-03-08T01:13:44;95893.81;;;0.83;100.00
706;BME280;21234;48.690;9.016;2024-03-08T01:16:13;95896.88;;;0.80;100.00
706;BME280;21234;48.690;9.016;2024-03-08T01:18:41;95891.53;;;0.80;100.00
706;BME280;21234;48.690;9.016;2024-03-08T01:21:09;95891.53;;;0.80;100.00
706;BME280;21234;48.690;9.016;2024-03-08T01:23:35;95886.38;;;0.78;100.00
706;BME280;21234;48.690;9.016;2024-03-08T01:26:03;95879.38;;;0.77;100.00
706;BME280;21234;48.690;9.016;2024-03-08T01:28:30;95879.75;;;0.74;100.00
706;BME280;21234;48.690;9.016;2024-03-08T01:30:57;95880.97;;;0.72;100.00
706;BME280;21234;48.690;9.016;2024-03-08T01:33:24;95871.69;;;0.67;100.00
706;BME280;21234;48.690;9.016;2024-03-08T01:35:53;95871.28;;;0.64;100.00
706;BME280;21234;48.690;9.016;2024-03-08T01:38:20;95862.84;;;0.67;100.00
706;BME280;21234;48.690;9.016;2024-03-08T01:40:47;95859.75;;;0.63;100.00
706;BME280;21234;48.690;9.016;2024-03-08T01:43:18;95862.22;;;0.58;100.00
706;BME280;21234;48.690;9.016;2024-03-08T01:45:45;95859.91;;;0.55;100.00
706;BME280;21234;48.690;9.016;2024-03-08T01:48:13;95851.91;;;0.55;100.00
706;BME280;21234;48.690;9.016;2024-03-08T01:50:40;95851.69;;;0.57;100.00
706;BME280;21234;48.690;9.016;2024-03-08T01:53:09;95849.63;;;0.52;100.00
706;BME280;21234;48.690;9.016;2024-03-08T01:55:38;95845.28;;;0.51;100.00
706;BME280;21234;48.690;9.016;2024-03-08T01:58:05;95845.06;;;0.46;100.00
706;BME280;21234;48.690;9.016;2024-03-08T02:00:33;95843.06;;;0.55;100.00
706;BME280;21234;48.690;9.016;2024-03-08T02:03:01;95834.19;;;0.54;100.00
706;BME280;21234;48.690;9.016;2024-03-08T02:05:29;95839.31;;;0.49;100.00
706;BME280;21234;48.690;9.016;2024-03-08T02:07:56;95825.50;;;0.46;100.00
706;BME280;21234;48.690;9.016;2024-03-08T02:10:25;95824.06;;;0.43;100.00
706;BME280;21234;48.690;9.016;2024-03-08T02:12:51;95816.84;;;0.44;100.00
706;BME280;21234;48.690;9.016;2024-03-08T02:15:18;95816.03;;;0.43;100.00
706;BME280;21234;48.690;9.016;2024-03-08T02:17:46;95805.72;;;0.40;100.00
706;BME280;21234;48.690;9.016;2024-03-08T02:20:13;95803.44;;;0.37;100.00
706;BME280;21234;48.690;9.016;2024-03-08T02:22:42;95806.13;;;0.37;100.00
706;BME280;21234;48.690;9.016;2024-03-08T02:25:08;95809.59;;;0.31;100.00
706;BME280;21234;48.690;9.016;2024-03-08T02:27:36;95801.78;;;0.29;100.00
706;BME280;21234;48.690;9.016;2024-03-08T02:30:03;95799.13;;;0.29;100.00
706;BME280;21234;48.690;9.016;2024-03-08T02:32:30;95791.06;;;0.23;100.00
706;BME280;21234;48.690;9.016;2024-03-08T02:34:58;95795.38;;;0.24;100.00
706;BME280;21234;48.690;9.016;2024-03-08T02:37:25;95798.25;;;0.22;100.00
706;BME280;21234;48.690;9.016;2024-03-08T02:39:54;95788.13;;;0.18;100.00
706;BME280;21234;48.690;9.016;2024-03-08T02:42:21;95787.13;;;0.19;100.00
706;BME280;21234;48.690;9.016;2024-03-08T02:44:48;95781.72;;;0.12;100.00
706;BME280;21234;48.690;9.016;2024-03-08T02:47:14;95779.88;;;0.13;100.00
706;BME280;21234;48.690;9.016;2024-03-08T02:49:41;95775.75;;;0.10;100.00
706;BME280;21234;48.690;9.016;2024-03-08T02:52:08;95779.44;;;0.09;100.00
706;BME280;21234;48.690;9.016;2024-03-08T02:54:35;95772.22;;;0.03;100.00
706;BME280;21234;48.690;9.016;2024-03-08T02:57:03;95773.22;;;0.02;100.00
706;BME280;21234;48.690;9.016;2024-03-08T02:59:32;95777.75;;;0.02;100.00
706;BME280;21234;48.690;9.016;2024-03-08T03:01:59;95777.97;;;0.00;100.00
706;BME280;21234;48.690;9.016;2024-03-08T03:04:26;95776.53;;;-0.03;100.00
706;BME280;21234;48.690;9.016;2024-03-08T03:06:53;95773.84;;;-0.03;100.00
706;BME280;21234;48.690;9.016;2024-03-08T03:09:20;95771.19;;;-0.03;100.00
706;BME280;21234;48.690;9.016;2024-03-08T03:11:49;95769.72;;;-0.05;100.00
706;BME280;21234;48.690;9.016;2024-03-08T03:14:17;95770.53;;;-0.05;100.00
706;BME280;21234;48.690;9.016;2024-03-08T03:16:45;95763.13;;;-0.09;100.00
706;BME280;21234;48.690;9.016;2024-03-08T03:19:12;95768.25;;;-0.08;100.00
706;BME280;21234;48.690;9.016;2024-03-08T03:21:40;95766.63;;;-0.09;100.00
706;BME280;21234;48.690;9.016;2024-03-08T03:24:08;95765.16;;;-0.11;100.00
706;BME280;21234;48.690;9.016;2024-03-08T03:26:36;95759.19;;;-0.13;100.00
706;BME280;21234;48.690;9.016;2024-03-08T03:29:04;95752.19;;;-0.14;100.00
706;BME280;21234;48.690;9.016;2024-03-08T03:31:32;95753.59;;;-0.18;100.00
706;BME280;21234;48.690;9.016;2024-03-08T03:33:59;95743.09;;;-0.20;100.00
706;BME280;21234;48.690;9.016;2024-03-08T03:36:28;95740.44;;;-0.20;100.00
706;BME280;21234;48.690;9.016;2024-03-08T03:38:55;95747.44;;;-0.19;100.00
706;BME280;21234;48.690;9.016;2024-03-08T03:41:32;95736.31;;;-0.22;100.00
706;BME280;21234;48.690;9.016;2024-03-08T03:43:59;95731.59;;;-0.20;100.00
706;BME280;21234;48.690;9.016;2024-03-08T03:46:26;95736.50;;;-0.24;100.00
706;BME280;21234;48.690;9.016;2024-03-08T03:48:55;95739.38;;;-0.25;100.00
706;BME280;21234;48.690;9.016;2024-03-08T03:51:21;95737.53;;;-0.25;100.00
706;BME280;21234;48.690;9.016;2024-03-08T03:53:48;95740.00;;;-0.23;100.00
706;BME280;21234;48.690;9.016;2024-03-08T03:56:15;95737.53;;;-0.25;100.00
706;BME280;21234;48.690;9.016;2024-03-08T03:58:41;95739.56;;;-0.27;100.00
706;BME280;21234;48.690;9.016;2024-03-08T04:01:08;95730.09;;;-0.29;100.00
706;BME280;21234;48.690;9.016;2024-03-08T04:03:36;95730.50;;;-0.32;100.00
706;BME280;21234;48.690;9.016;2024-03-08T04:06:04;95726.78;;;-0.31;100.00
706;BME280;21234;48.690;9.016;2024-03-08T04:08:31;95736.66;;;-0.32;100.00
706;BME280;21234;48.690;9.016;2024-03-08T04:10:59;95726.19;;;-0.33;100.00
706;BME280;21234;48.690;9.016;2024-03-08T04:13:26;95728.22;;;-0.36;100.00
706;BME280;21234;48.690;9.016;2024-03-08T04:15:53;95731.91;;;-0.37;100.00
706;BME280;21234;48.690;9.016;2024-03-08T04:18:20;95725.31;;;-0.41;100.00
706;BME280;21234;48.690;9.016;2024-03-08T04:20:47;95727.16;;;-0.41;100.00
706;BME280;21234;48.690;9.016;2024-03-08T04:23:15;95724.88;;;-0.44;100.00
706;BME280;21234;48.690;9.016;2024-03-08T04:25:43;95711.34;;;-0.43;100.00
706;BME280;21234;48.690;9.016;2024-03-08T04:28:09;95714.38;;;-0.46;100.00
706;BME280;21234;48.690;9.016;2024-03-08T04:30:37;95720.56;;;-0.45;100.00
706;BME280;21234;48.690;9.016;2024-03-08T04:33:04;95719.94;;;-0.47;100.00
706;BME280;21234;48.690;9.016;2024-03-08T04:35:31;95716.44;;;-0.48;100.00
706;BME280;21234;48.690;9.016;2024-03-08T04:37:58;95718.91;;;-0.46;100.00
706;BME280;21234;48.690;9.016;2024-03-08T04:40:26;95707.78;;;-0.50;100.00
706;BME280;21234;48.690;9.016;2024-03-08T04:42:53;95707.16;;;-0.52;100.00
706;BME280;21234;48.690;9.016;2024-03-08T04:45:19;95705.69;;;-0.54;100.00
706;BME280;21234;48.690;9.016;2024-03-08T04:47:47;95707.34;;;-0.53;100.00
706;BME280;21234;48.690;9.016;2024-03-08T04:50:13;95705.69;;;-0.54;100.00
706;BME280;21234;48.690;9.016;2024-03-08T04:52:40;95697.25;;;-0.58;100.00
706;BME280;21234;48.690;9.016;2024-03-08T04:55:07;95700.94;;;-0.59;100.00
706;BME280;21234;48.690;9.016;2024-03-08T04:57:35;95696.44;;;-0.58;100.00
706;BME280;21234;48.690;9.016;2024-03-08T05:00:02;95705.25;;;-0.58;100.00
706;BME280;21234;48.690;9.016;2024-03-08T05:02:36;95699.88;;;-0.64;100.00
706;BME280;21234;48.690;9.016;2024-03-08T05:05:04;95696.22;;;-0.57;100.00
706;BME280;21234;48.690;9.016;2024-03-08T05:07:32;95696.63;;;-0.60;100.00
706;BME280;21234;48.690;9.016;2024-03-08T05:09:59;95695.66;;;-0.52;100.00
706;BME280;21234;48.690;9.016;2024-03-08T05:12:26;95698.91;;;-0.57;100.00
706;BME280;21234;48.690;9.016;2024-03-08T05:14:54;95688.41;;;-0.58;100.00
706;BME280;21234;48.690;9.016;2024-03-08T05:17:20;95695.41;;;-0.57;100.00
706;BME280;21234;48.690;9.016;2024-03-08T05:19:49;95693.38;;;-0.55;100.00
706;BME280;21234;48.690;9.016;2024-03-08T05:22:16;95695.41;;;-0.57;100.00
706;BME280;21234;48.690;9.016;2024-03-08T05:24:42;95690.00;;;-0.64;100.00
706;BME280;21234;48.690;9.016;2024-03-08T05:27:09;95689.19;;;-0.64;100.00
706;BME280;21234;48.690;9.016;2024-03-08T05:29:36;95684.69;;;-0.64;100.00
706;BME280;21234;48.690;9.016;2024-03-08T05:32:04;95683.25;;;-0.66;100.00
706;BME280;21234;48.690;9.016;2024-03-08T05:34:32;95683.44;;;-0.68;100.00
706;BME280;21234;48.690;9.016;2024-03-08T05:36:59;95690.63;;;-0.69;100.00
706;BME280;21234;48.690;9.016;2024-03-08T05:39:26;95686.94;;;-0.68;100.00
706;BME280;21234;48.690;9.016;2024-03-08T05:41:53;95685.91;;;-0.66;100.00
706;BME280;21234;48.690;9.016;2024-03-08T05:44:21;95687.75;;;-0.67;100.00
706;BME280;21234;48.690;9.016;2024-03-08T05:46:49;95686.75;;;-0.66;100.00
706;BME280;21234;48.690;9.016;2024-03-08T05:49:17;95689.41;;;-0.66;100.00
706;BME280;21234;48.690;9.016;2024-03-08T05:51:44;95687.16;;;-0.62;100.00
706;BME280;21234;48.690;9.016;2024-03-08T05:54:11;95690.84;;;-0.63;100.00
706;BME280;21234;48.690;9.016;2024-03-08T05:56:39;95687.19;;;-0.56;100.00
706;BME280;21234;48.690;9.016;2024-03-08T05:59:07;95685.16;;;-0.54;100.00
706;BME280;21234;48.690;9.016;2024-03-08T06:01:34;95690.75;;;-0.49;100.00
706;BME280;21234;48.690;9.016;2024-03-08T06:04:03;95687.94;;;-0.41;100.00
706;BME280;21234;48.690;9.016;2024-03-08T06:06:31;95686.72;;;-0.38;100.00
706;BME280;21234;48.690;9.016;2024-03-08T06:08:58;95697.66;;;-0.26;100.00
706;BME280;21234;48.690;9.016;2024-03-08T06:11:25;95691.25;;;-0.32;100.00
706;BME280;21234;48.690;9.016;2024-03-08T06:13:53;95695.56;;;-0.38;100.00
706;BME280;21234;48.690;9.016;2024-03-08T06:16:25;95690.22;;;-0.38;100.00
706;BME280;21234;48.690;9.016;2024-03-08T06:18:55;95692.28;;;-0.33;100.00
706;BME280;21234;48.690;9.016;2024-03-08T06:21:22;95690.06;;;-0.23;100.00
706;BME280;21234;48.690;9.016;2024-03-08T06:23:52;95687.44;;;-0.16;100.00
706;BME280;21234;48.690;9.016;2024-03-08T06:26:20;95690.53;;;-0.13;100.00
706;BME280;21234;48.690;9.016;2024-03-08T06:28:47;95691.81;;;-0.09;100.00
706;BME280;21234;48.690;9.016;2024-03-08T06:31:14;95686.69;;;-0.04;100.00
706;BME280;21234;48.690;9.016;2024-03-08T06:33:41;95691.66;;;-0.01;100.00
706;BME280;21234;48.690;9.016;2024-03-08T06:36:08;95684.44;;;0.07;100.00
706;BME280;21234;48.690;9.016;2024-03-08T06:38:37;95683.03;;;0.11;100.00
706;BME280;21234;48.690;9.016;2024-03-08T06:41:09;95686.31;;;0.06;100.00
706;BME280;21234;48.690;9.016;2024-03-08T06:43:40;95678.91;;;0.08;100.00
706;BME280;21234;48.690;9.016;2024-03-08T06:46:07;95682.84;;;0.12;100.00
706;BME280;21234;48.690;9.016;2024-03-08T06:48:34;95683.06;;;0.17;100.00
706;BME280;21234;48.690;9.016;2024-03-08T06:51:03;95682.88;;;0.19;100.00
706;BME280;21234;48.690;9.016;2024-03-08T06:53:30;95668.91;;;0.23;100.00
706;BME280;21234;48.690;9.016;2024-03-08T06:55:57;95684.16;;;0.29;100.00
706;BME280;21234;48.690;9.016;2024-03-08T06:58:25;95681.66;;;0.34;100.00
706;BME280;21234;48.690;9.016;2024-03-08T07:00:52;95691.56;;;0.41;100.00
706;BME280;21234;48.690;9.016;2024-03-08T07:03:23;95684.38;;;0.41;100.00
706;BME280;21234;48.690;9.016;2024-03-08T07:05:51;95683.97;;;0.44;100.00
706;BME280;21234;48.690;9.016;2024-03-08T07:08:18;95688.91;;;0.47;100.00
706;BME280;21234;48.690;9.016;2024-03-08T07:10:47;95694.91;;;0.49;100.00
706;BME280;21234;48.690;9.016;2024-03-08T07:13:14;95682.13;;;0.45;100.00
706;BME280;21234;48.690;9.016;2024-03-08T07:15:43;95689.75;;;0.48;100.00
706;BME280;21234;48.690;9.016;2024-03-08T07:18:11;95674.75;;;0.60;100.00
706;BME280;21234;48.690;9.016;2024-03-08T07:20:40;95667.75;;;0.59;100.00
706;BME280;21234;48.690;9.016;2024-03-08T07:23:06;95664.06;;;0.66;100.00
706;BME280;21234;48.690;9.016;2024-03-08T07:25:33;95665.69;;;0.67;100.00
706;BME280;21234;48.690;9.016;2024-03-08T07:28:00;95664.88;;;0.67;100.00
706;BME280;21234;48.690;9.016;2024-03-08T07:30:27;95663.03;;;0.74;100.00
706;BME280;21234;48.690;9.016;2024-03-08T07:33:09;95669.00;;;0.70;100.00
706;BME280;21234;48.690;9.016;2024-03-08T07:35:37;95667.38;;;0.82;100.00
706;BME280;21234;48.690;9.016;2024-03-08T07:38:04;95663.28;;;0.86;100.00
706;BME280;21234;48.690;9.016;2024-03-08T07:40:31;95659.78;;;0.85;100.00
706;BME280;21234;48.690;9.016;2024-03-08T07:42:58;95662.66;;;0.84;100.00
706;BME280;21234;48.690;9.016;2024-03-08T07:45:25;95660.38;;;0.81;100.00
706;BME280;21234;48.690;9.016;2024-03-08T07:47:52;95667.81;;;0.85;100.00
706;BME280;21234;48.690;9.016;2024-03-08T07:50:20;95665.75;;;0.94;100.00
706;BME280;21234;48.690;9.016;2024-03-08T07:52:48;95662.25;;;0.93;100.00
706;BME280;21234;48.690;9.016;2024-03-08T07:55:15;95653.59;;;0.91;100.00
706;BME280;21234;48.690;9.016;2024-03-08T07:57:41;95656.50;;;0.96;100.00
706;BME280;21234;48.690;9.016;2024-03-08T08:00:09;95641.25;;;0.97;100.00
706;BME280;21234;48.690;9.016;2024-03-08T08:02:42;95642.09;;;0.97;100.00
706;BME280;21234;48.690;9.016;2024-03-08T08:05:10;95644.75;;;1.04;100.00
706;BME280;21234;48.690;9.016;2024-03-08T08:07:39;95642.47;;;1.08;100.00
706;BME280;21234;48.690;9.016;2024-03-08T08:10:07;95640.41;;;1.23;100.00
706;BME280;21234;48.690;9.016;2024-03-08T08:12:38;95640.84;;;1.13;100.00
706;BME280;21234;48.690;9.016;2024-03-08T08:15:05;95640.00;;;1.06;100.00
706;BME280;21234;48.690;9.016;2024-03-08T08:17:32;95641.25;;;1.17;100.00
706;BME280;21234;48.690;9.016;2024-03-08T08:20:00;95639.59;;;1.09;100.00
706;BME280;21234;48.690;9.016;2024-03-08T08:22:30;95631.97;;;1.19;100.00
706;BME280;21234;48.690;9.016;2024-03-08T08:24:59;95639.19;;;1.19;100.00
706;BME280;21234;48.690;9.016;2024-03-08T08:27:25;95628.47;;;1.25;100.00
706;BME280;21234;48.690;9.016;2024-03-08T08:29:52;95635.88;;;1.23;100.00
706;BME280;21234;48.690;9.016;2024-03-08T08:32:19;95634.81;;;1.31;100.00
706;BME280;21234;48.690;9.016;2024-03-08T08:34:46;95641.63;;;1.33;100.00
706;BME280;21234;48.690;9.016;2024-03-08T08:37:13;95639.75;;;1.41;100.00
706;BME280;21234;48.690;9.016;2024-03-08T08:39:41;95630.13;;;1.26;100.00
706;BME280;21234;48.690;9.016;2024-03-08T08:42:09;95637.94;;;1.21;100.00
706;BME280;21234;48.690;9.016;2024-03-08T08:44:36;95631.34;;;1.24;100.00
706;BME280;21234;48.690;9.016;2024-03-08T08:47:03;95636.72;;;1.11;100.00
706;BME280;21234;48.690;9.016;2024-03-08T08:49:30;95629.72;;;1.29;100.00
706;BME280;21234;48.690;9.016;2024-03-08T08:51:57;95635.84;;;1.37;100.00
706;BME280;21234;48.690;9.016;2024-03-08T08:54:24;95632.59;;;1.28;100.00
706;BME280;21234;48.690;9.016;2024-03-08T08:56:53;95632.97;;;1.31;100.00
706;BME280;21234;48.690;9.016;2024-03-08T08:59:21;95636.72;;;1.17;100.00
706;BME280;21234;48.690;9.016;2024-03-08T09:01:50;95627.44;;;1.13;100.00
706;BME280;21234;48.690;9.016;2024-03-08T09:04:19;95624.34;;;1.23;100.00
706;BME280;21234;48.690;9.016;2024-03-08T09:06:47;95623.91;;;1.32;100.00
706;BME280;21234;48.690;9.016;2024-03-08T09:09:13;95617.50;;;1.40;100.00
706;BME280;21234;48.690;9.016;2024-03-08T09:11:42;95620.81;;;1.42;100.00
706;BME280;21234;48.690;9.016;2024-03-08T09:14:09;95605.16;;;1.46;100.00
706;BME280;21234;48.690;9.016;2024-03-08T09:16:38;95615.03;;;1.52;100.00
706;BME280;21234;48.690;9.016;2024-03-08T09:19:05;95610.28;;;1.60;100.00
706;BME280;21234;48.690;9.016;2024-03-08T09:21:32;95611.69;;;1.63;100.00
706;BME280;21234;48.690;9.016;2024-03-08T09:24:00;95610.28;;;1.60;100.00
706;BME280;21234;48.690;9.016;2024-03-08T09:26:27;95613.94;;;1.66;100.00
706;BME280;21234;48.690;9.016;2024-03-08T09:28:53;95610.84;;;1.69;100.00
706;BME280;21234;48.690;9.016;2024-03-08T09:31:21;95609.44;;;1.60;100.00
706;BME280;21234;48.690;9.016;2024-03-08T09:33:49;95606.09;;;1.71;100.00
706;BME280;21234;48.690;9.016;2024-03-08T09:36:17;95604.31;;;1.58;100.00
706;BME280;21234;48.690;9.016;2024-03-08T09:38:44;95608.63;;;1.53;100.00
706;BME280;21234;48.690;9.016;2024-03-08T09:41:10;95599.94;;;1.64;100.00
706;BME280;21234;48.690;9.016;2024-03-08T09:43:38;95605.47;;;1.69;100.00
706;BME280;21234;48.690;9.016;2024-03-08T09:46:05;95603.41;;;1.71;100.00
706;BME280;21234;48.690;9.016;2024-03-08T09:48:34;95604.59;;;1.88;100.00
706;BME280;21234;48.690;9.016;2024-03-08T09:51:03;95598.03;;;1.84;100.00
706;BME280;21234;48.690;9.016;2024-03-08T09:53:30;95598.78;;;1.98;100.00
706;BME280;21234;48.690;9.016;2024-03-08T09:55:57;95596.91;;;1.98;100.00
706;BME280;21234;48.690;9.016;2024-03-08T09:58:24;95587.81;;;2.06;100.00
706;BME280;21234;48.690;9.016;2024-03-08T10:01:19;95580.53;;;2.20;100.00
706;BME280;21234;48.690;9.016;2024-03-08T10:03:47;95578.25;;;2.23;100.00
706;BME280;21234;48.690;9.016;2024-03-08T10:06:16;95583.19;;;2.26;100.00
706;BME280;21234;48.690;9.016;2024-03-08T10:08:42;95582.66;;;2.43;100.00
706;BME280;21234;48.690;9.016;2024-03-08T10:11:10;95577.25;;;2.49;100.00
706;BME280;21234;48.690;9.016;2024-03-08T10:13:37;95572.28;;;2.53;100.00
706;BME280;21234;48.690;9.016;2024-03-08T10:16:06;95574.56;;;2.49;100.00
706;BME280;21234;48.690;9.016;2024-03-08T10:18:33;95567.94;;;2.52;100.00
706;BME280;21234;48.690;9.016;2024-03-08T10:21:04;95570.59;;;2.58;100.00
706;BME280;21234;48.690;9.016;2024-03-08T10:23:33;95567.13;;;2.51;100.00
706;BME280;21234;48.690;9.016;2024-03-08T10:26:10;95562.97;;;2.55;100.00
706;BME280;21234;48.690;9.016;2024-03-08T10:28:40;95561.97;;;2.50;99.64
706;BME280;21234;48.690;9.016;2024-03-08T10:31:06;95553.59;;;2.64;100.00
706;BME280;21234;48.690;9.016;2024-03-08T10:33:34;95556.13;;;2.59;99.19
706;BME280;21234;48.690;9.016;2024-03-08T10:36:00;95557.06;;;2.72;100.00
706;BME280;21234;48.690;9.016;2024-03-08T10:38:30;95556.31;;;2.89;100.00
706;BME280;21234;48.690;9.016;2024-03-08T10:41:00;95548.13;;;2.78;98.28
706;BME280;21234;48.690;9.016;2024-03-08T10:43:31;95546.22;;;2.85;99.89
706;BME280;21234;48.690;9.016;2024-03-08T10:46:15;95545.94;;;2.93;99.11
706;BME280;21234;48.690;9.016;2024-03-08T10:48:49;95538.63;;;2.82;98.17
706;BME280;21234;48.690;9.016;2024-03-08T10:51:16;95537.75;;;2.88;98.33
706;BME280;21234;48.690;9.016;2024-03-08T10:53:46;95544.19;;;3.05;97.79
706;BME280;21234;48.690;9.016;2024-03-08T10:56:17;95538.59;;;3.07;97.78
706;BME280;21234;48.690;9.016;2024-03-08T10:58:44;95529.66;;;3.13;96.42
706;BME280;21234;48.690;9.016;2024-03-08T11:01:11;95537.00;;;3.24;96.99
706;BME280;21234;48.690;9.016;2024-03-08T11:03:44;95535.94;;;3.25;95.32
706;BME280;21234;48.690;9.016;2024-03-08T11:06:15;95534.81;;;3.32;95.19
706;BME280;21234;48.690;9.016;2024-03-08T11:08:42;95537.19;;;3.59;96.19
706;BME280;21234;48.690;9.016;2024-03-08T11:11:25;95532.38;;;3.49;94.73
706;BME280;21234;48.690;9.016;2024-03-08T11:13:57;95533.00;;;3.63;95.19
706;BME280;21234;48.690;9.016;2024-03-08T11:16:40;95527.63;;;3.63;93.83
706;BME280;21234;48.690;9.016;2024-03-08T11:19:24;95529.88;;;3.84;94.48
706;BME280;21234;48.690;9.016;2024-03-08T11:22:01;95518.69;;;3.87;93.40
706;BME280;21234;48.690;9.016;2024-03-08T11:24:37;95523.03;;;4.00;92.59
706;BME280;21234;48.690;9.016;2024-03-08T11:27:09;95516.84;;;4.29;90.93
706;BME280;21234;48.690;9.016;2024-03-08T11:29:37;95517.34;;;4.08;89.98
706;BME280;21234;48.690;9.016;2024-03-08T11:32:08;95519.16;;;3.96;90.35
706;BME280;21234;48.690;9.016;2024-03-08T11:34:36;95507.81;;;3.94;91.08
706;BME280;21234;48.690;9.016;2024-03-08T11:37:10;95504.72;;;3.79;91.09
706;BME280;21234;48.690;9.016;2024-03-08T11:39:38;95499.84;;;4.17;90.56
706;BME280;21234;48.690;9.016;2024-03-08T11:42:05;95498.66;;;4.66;90.47
706;BME280;21234;48.690;9.016;2024-03-08T11:44:34;95486.13;;;4.49;87.82
706;BME280;21234;48.690;9.016;2024-03-08T11:47:01;95483.44;;;4.60;87.94
706;BME280;21234;48.690;9.016;2024-03-08T11:49:31;95483.72;;;5.05;86.91
706;BME280;21234;48.690;9.016;2024-03-08T11:51:59;95481.53;;;5.54;86.37
706;BME280;21234;48.690;9.016;2024-03-08T11:54:26;95474.50;;;6.05;85.18
706;BME280;21234;48.690;9.016;2024-03-08T11:56:53;95473.63;;;6.16;82.68
706;BME280;21234;48.690;9.016;2024-03-08T11:59:20;95466.28;;;6.28;81.47
706;BME280;21234;48.690;9.016;2024-03-08T12:01:59;95457.34;;;6.11;78.01
706;BME280;21234;48.690;9.016;2024-03-08T12:04:27;95456.72;;;6.54;82.32
706;BME280;21234;48.690;9.016;2024-03-08T12:06:54;95452.25;;;6.77;79.83
706;BME280;21234;48.690;9.016;2024-03-08T12:09:20;95449.38;;;7.00;78.92
706;BME280;21234;48.690;9.016;2024-03-08T12:11:48;95448.56;;;6.66;79.44
706;BME280;21234;48.690;9.016;2024-03-08T12:14:16;95446.25;;;6.58;79.04
706;BME280;21234;48.690;9.016;2024-03-08T12:16:43;95442.09;;;6.84;79.57
706;BME280;21234;48.690;9.016;2024-03-08T12:19:11;95438.63;;;6.88;77.20
706;BME280;21234;48.690;9.016;2024-03-08T12:21:38;95434.78;;;6.84;76.32
706;BME280;21234;48.690;9.016;2024-03-08T12:24:14;95435.31;;;6.81;76.72
706;BME280;21234;48.690;9.016;2024-03-08T12:26:42;95428.84;;;6.65;75.90
706;BME280;21234;48.690;9.016;2024-03-08T12:29:16;95431.13;;;6.73;75.61
706;BME280;21234;48.690;9.016;2024-03-08T12:31:46;95428.84;;;6.82;76.53
706;BME280;21234;48.690;9.016;2024-03-08T12:34:14;95430.56;;;6.71;77.45
706;BME280;21234;48.690;9.016;2024-03-08T12:36:45;95422.88;;;6.63;74.93
706;BME280;21234;48.690;9.016;2024-03-08T12:39:15;95427.69;;;6.61;75.14
706;BME280;21234;48.690;9.016;2024-03-08T12:41:43;95419.94;;;6.48;75.23
706;BME280;21234;48.690;9.016;2024-03-08T12:44:12;95416.25;;;6.37;75.35
706;BME280;21234;48.690;9.016;2024-03-08T12:46:39;95405.28;;;6.61;78.50
706;BME280;21234;48.690;9.016;2024-03-08T12:49:09;95405.03;;;6.79;75.50
706;BME280;21234;48.690;9.016;2024-03-08T12:51:38;95406.31;;;6.93;74.18
706;BME280;21234;48.690;9.016;2024-03-08T12:54:07;95394.72;;;7.15;74.38
706;BME280;21234;48.690;9.016;2024-03-08T12:56:34;95387.13;;;7.33;74.15
706;BME280;21234;48.690;9.016;2024-03-08T12:59:03;95381.78;;;7.38;73.26
706;BME280;21234;48.690;9.016;2024-03-08T13:01:31;95377.19;;;7.88;73.57
706;BME280;21234;48.690;9.016;2024-03-08T13:03:58;95369.69;;;7.68;70.30
706;BME280;21234;48.690;9.016;2024-03-08T13:06:25;95369.69;;;7.68;72.57
706;BME280;21234;48.690;9.016;2024-03-08T13:08:55;95371.63;;;7.51;71.98
706;BME280;21234;48.690;9.016;2024-03-08T13:11:22;95364.19;;;7.14;71.51
706;BME280;21234;48.690;9.016;2024-03-08T13:13:50;95368.44;;;7.10;72.96
706;BME280;21234;48.690;9.016;2024-03-08T13:16:16;95356.00;;;7.31;73.47
706;BME280;21234;48.690;9.016;2024-03-08T13:18:44;95345.56;;;7.39;73.83
706;BME280;21234;48.690;9.016;2024-03-08T13:21:14;95335.97;;;7.81;73.53
706;BME280;21234;48.690;9.016;2024-03-08T13:23:43;95332.25;;;7.60;70.96
706;BME280;21234;48.690;9.016;2024-03-08T13:26:13;95339.31;;;8.20;74.57
706;BME280;21234;48.690;9.016;2024-03-08T13:28:41;95335.56;;;8.95;69.57